createdAt,value
2018-07-10T00:00:13.104Z,61.14
2018-07-10T00:00:39.258Z,61.33
2018-07-10T00:01:05.411Z,61.14
2018-07-10T00:01:31.554Z,61.14
2018-07-10T00:01:57.690Z,61.43
2018-07-10T00:02:23.827Z,61.14
2018-07-10T00:02:49.966Z,61.23
2018-07-10T00:03:16.131Z,61.04
2018-07-10T00:03:42.270Z,61.14
2018-07-10T00:04:08.407Z,61.33
2018-07-10T00:04:34.550Z,61.33
2018-07-10T00:05:06.961Z,61.14
2018-07-10T00:05:33.115Z,61.14
2018-07-10T00:05:59.285Z,61.14
2018-07-10T00:06:25.417Z,61.04
2018-07-10T00:06:51.559Z,61.04
2018-07-10T00:07:17.697Z,61.61
2018-07-10T00:07:43.833Z,61.14
2018-07-10T00:08:10.053Z,61.33
2018-07-10T00:08:36.106Z,60.94
2018-07-10T00:09:02.240Z,61.14
2018-07-10T00:09:28.373Z,61.23
2018-07-10T00:09:54.544Z,60.94
2018-07-10T00:10:20.675Z,61.33
2018-07-10T00:10:46.840Z,61.14
2018-07-10T00:11:12.984Z,61.33
2018-07-10T00:11:39.143Z,61.91
2018-07-10T00:12:05.300Z,61.52
2018-07-10T00:12:31.481Z,62
2018-07-10T00:12:57.640Z,61.23
2018-07-10T00:13:23.781Z,61.52
2018-07-10T00:13:49.920Z,61.43
2018-07-10T00:14:16.057Z,61.49
2018-07-10T00:14:42.199Z,62.55
2018-07-10T00:15:08.332Z,62.1
2018-07-10T00:15:34.497Z,61.91
2018-07-10T00:16:00.629Z,61.91
2018-07-10T00:16:26.766Z,61.61
2018-07-10T00:16:52.906Z,61.78
2018-07-10T00:17:19.035Z,61.87
2018-07-10T00:17:45.170Z,61.58
2018-07-10T00:18:11.309Z,61.61
2018-07-10T00:18:37.449Z,61.11
2018-07-10T00:19:03.589Z,61.3
2018-07-10T00:19:29.753Z,61.14
2018-07-10T00:19:55.888Z,61.43
2018-07-10T00:20:22.062Z,61.2
2018-07-10T00:20:48.206Z,61.4
2018-07-10T00:21:14.340Z,61.58
2018-07-10T00:21:40.503Z,61.58
2018-07-10T00:22:06.639Z,61.11
2018-07-10T00:22:32.780Z,61.11
2018-07-10T00:22:58.934Z,61.58
2018-07-10T00:23:25.070Z,61.33
2018-07-10T00:23:51.208Z,61.04
2018-07-10T00:24:17.378Z,61.01
2018-07-10T00:24:43.518Z,61.2
2018-07-10T00:25:09.657Z,61.2
2018-07-10T00:25:35.794Z,61.3
2018-07-10T00:26:01.930Z,61.4
2018-07-10T00:26:28.060Z,60.91
2018-07-10T00:26:54.201Z,61.4
2018-07-10T00:27:20.368Z,60.91
2018-07-10T00:27:46.500Z,61.11
2018-07-10T00:28:12.639Z,61.4
2018-07-10T00:28:38.797Z,61.2
2018-07-10T00:29:04.932Z,61.11
2018-07-10T00:29:31.070Z,61.4
2018-07-10T00:29:57.211Z,61.01
2018-07-10T00:30:23.349Z,61.3
2018-07-10T00:30:49.483Z,61.3
2018-07-10T00:31:15.619Z,61.3
2018-07-10T00:31:41.762Z,61.11
2018-07-10T00:32:07.896Z,61.11
2018-07-10T00:32:34.031Z,61.3
2018-07-10T00:33:00.173Z,61.3
2018-07-10T00:33:26.305Z,60.91
2018-07-10T00:33:52.442Z,61.2
2018-07-10T00:34:18.604Z,61.3
2018-07-10T00:34:44.743Z,61.11
2018-07-10T00:35:10.882Z,60.37
2018-07-10T00:35:37.023Z,60.34
2018-07-10T00:36:03.180Z,60.53
2018-07-10T00:36:29.342Z,60.17
2018-07-10T00:36:55.475Z,60.46
2018-07-10T00:37:21.640Z,60.56
2018-07-10T00:37:47.775Z,60.27
2018-07-10T00:38:13.943Z,60.27
2018-07-10T00:38:40.094Z,60.53
2018-07-10T00:39:06.239Z,60.43
2018-07-10T00:39:32.367Z,60.75
2018-07-10T00:39:58.510Z,60.85
2018-07-10T00:40:24.646Z,60.85
2018-07-10T00:40:50.785Z,60.34
2018-07-10T00:41:16.920Z,61.04
2018-07-10T00:41:43.090Z,60.85
2018-07-10T00:42:09.247Z,61.14
2018-07-10T00:42:35.387Z,60.75
2018-07-10T00:43:01.520Z,60.37
2018-07-10T00:43:27.695Z,60.43
2018-07-10T00:43:53.830Z,60.53
2018-07-10T00:44:19.972Z,60.08
2018-07-10T00:44:46.108Z,60.72
2018-07-10T00:45:12.245Z,60.53
2018-07-10T00:45:38.387Z,60.43
2018-07-10T00:46:04.525Z,60.63
2018-07-10T00:46:30.660Z,60.63
2018-07-10T00:46:56.800Z,61.49
2018-07-10T00:47:22.934Z,61.3
2018-07-10T00:47:49.070Z,60.94
2018-07-10T00:48:15.214Z,61.04
2018-07-10T00:48:41.350Z,61.11
2018-07-10T00:49:07.490Z,61.33
2018-07-10T00:49:33.630Z,60.66
2018-07-10T00:49:59.763Z,60.72
2018-07-10T00:50:25.934Z,60.72
2018-07-10T00:50:52.091Z,60.85
2018-07-10T00:51:18.251Z,60.75
2018-07-10T00:51:44.384Z,61.11
2018-07-10T00:52:10.529Z,61.2
2018-07-10T00:52:36.662Z,61.11
2018-07-10T00:53:02.796Z,61.4
2018-07-10T00:53:28.962Z,61.2
2018-07-10T00:53:55.126Z,60.91
2018-07-10T00:54:21.266Z,61.11
2018-07-10T00:54:47.404Z,61.11
2018-07-10T00:55:13.546Z,61.2
2018-07-10T00:55:39.680Z,61.3
2018-07-10T00:56:05.843Z,61.3
2018-07-10T00:56:31.982Z,60.91
2018-07-10T00:56:58.142Z,61.4
2018-07-10T00:57:24.283Z,61.4
2018-07-10T00:57:50.421Z,61.97
2018-07-10T00:58:16.556Z,61.87
2018-07-10T00:58:42.692Z,61.78
2018-07-10T00:59:08.830Z,61.97
2018-07-10T00:59:34.989Z,62.16
2018-07-10T01:00:01.137Z,61.97
2018-07-10T01:00:27.269Z,61.97
2018-07-10T01:00:53.414Z,61.49
2018-07-10T01:01:19.547Z,61.4
2018-07-10T01:01:45.683Z,61.49
2018-07-10T01:02:11.824Z,61.97
2018-07-10T01:02:37.960Z,61.4
2018-07-10T01:03:04.107Z,61.49
2018-07-10T01:03:30.272Z,61.58
2018-07-10T01:03:56.407Z,61.3
2018-07-10T01:04:22.535Z,61.58
2018-07-10T01:04:48.677Z,61.11
2018-07-10T01:05:14.810Z,61.87
2018-07-10T01:05:40.945Z,61.97
2018-07-10T01:06:07.087Z,61.58
2018-07-10T01:06:33.249Z,61.3
2018-07-10T01:06:59.389Z,61.43
2018-07-10T01:07:25.518Z,61.49
2018-07-10T01:07:51.676Z,61.2
2018-07-10T01:08:17.821Z,61.49
2018-07-10T01:08:43.960Z,61.49
2018-07-10T01:09:10.105Z,61.58
2018-07-10T01:09:36.258Z,61.11
2018-07-10T01:10:02.417Z,61.4
2018-07-10T01:10:28.578Z,61.97
2018-07-10T01:10:54.713Z,61.87
2018-07-10T01:11:20.853Z,61.97
2018-07-10T01:11:46.984Z,61.49
2018-07-10T01:12:13.131Z,61.87
2018-07-10T01:12:39.288Z,62.45
2018-07-10T01:13:05.435Z,62.26
2018-07-10T01:13:31.569Z,62.07
2018-07-10T01:13:57.710Z,62.45
2018-07-10T01:14:23.848Z,62.35
2018-07-10T01:14:49.983Z,62.84
2018-07-10T01:15:16.119Z,62.74
2018-07-10T01:15:42.262Z,62.93
2018-07-10T01:16:08.399Z,62.93
2018-07-10T01:16:34.562Z,62.35
2018-07-10T01:17:00.732Z,62.07
2018-07-10T01:17:26.862Z,61.49
2018-07-10T01:17:53.003Z,61.2
2018-07-10T01:18:19.156Z,61.3
2018-07-10T01:18:45.309Z,61.58
2018-07-10T01:19:11.459Z,61.58
2018-07-10T01:19:37.597Z,61.4
2018-07-10T01:20:03.730Z,61.87
2018-07-10T01:20:29.869Z,61.87
2018-07-10T01:20:56.008Z,61.97
2018-07-10T01:21:22.167Z,61.87
2018-07-10T01:21:48.309Z,61.4
2018-07-10T01:22:14.442Z,61.3
2018-07-10T01:22:40.584Z,61.49
2018-07-10T01:23:06.722Z,61.4
2018-07-10T01:23:32.886Z,61.49
2018-07-10T01:23:59.016Z,61.4
2018-07-10T01:24:25.157Z,61.4
2018-07-10T01:24:51.294Z,61.97
2018-07-10T01:25:17.459Z,62.26
2018-07-10T01:25:43.599Z,62.16
2018-07-10T01:26:09.761Z,62.26
2018-07-10T01:26:35.910Z,62.26
2018-07-10T01:27:02.050Z,62.35
2018-07-10T01:27:28.185Z,62.35
2018-07-10T01:27:54.329Z,62.26
2018-07-10T01:28:20.467Z,62.16
2018-07-10T01:28:46.599Z,62.07
2018-07-10T01:29:12.739Z,62.35
2018-07-10T01:29:38.873Z,62.26
2018-07-10T01:30:05.040Z,62.07
2018-07-10T01:30:31.176Z,62.16
2018-07-10T01:30:57.313Z,61.97
2018-07-10T01:31:23.469Z,62.74
2018-07-10T01:31:49.615Z,62.16
2018-07-10T01:32:15.773Z,62.45
2018-07-10T01:32:41.930Z,62.74
2018-07-10T01:33:08.074Z,62.55
2018-07-10T01:33:34.210Z,62.64
2018-07-10T01:34:00.362Z,62.64
2018-07-10T01:34:26.542Z,62.55
2018-07-10T01:34:52.685Z,62.93
2018-07-10T01:35:18.845Z,63.32
2018-07-10T01:35:44.986Z,62.93
2018-07-10T01:36:11.137Z,63.32
2018-07-10T01:36:37.279Z,63.41
2018-07-10T01:37:03.423Z,63.41
2018-07-10T01:37:29.553Z,63.32
2018-07-10T01:37:55.720Z,62.93
2018-07-10T01:38:21.855Z,63.51
2018-07-10T01:38:48.020Z,63.12
2018-07-10T01:39:14.174Z,63.22
2018-07-10T01:39:40.309Z,63.22
2018-07-10T01:40:06.477Z,63.51
2018-07-10T01:40:32.612Z,63.32
2018-07-10T01:40:58.752Z,63.32
2018-07-10T01:41:24.909Z,63.22
2018-07-10T01:41:51.102Z,63.41
2018-07-10T01:42:17.240Z,63.32
2018-07-10T01:42:43.376Z,63.22
2018-07-10T01:43:09.543Z,63.12
2018-07-10T01:43:35.683Z,63.02
2018-07-10T01:44:01.825Z,63.02
2018-07-10T01:44:27.984Z,62.93
2018-07-10T01:44:54.122Z,63.12
2018-07-10T01:45:20.280Z,62.93
2018-07-10T01:45:46.409Z,62.64
2018-07-10T01:46:12.554Z,62.45
2018-07-10T01:46:38.687Z,62.35
2018-07-10T01:47:04.851Z,62.35
2018-07-10T01:47:31.009Z,62.74
2018-07-10T01:47:57.143Z,62.45
2018-07-10T01:48:23.279Z,62.45
2018-07-10T01:48:49.415Z,62.35
2018-07-10T01:49:15.590Z,62.93
2018-07-10T01:49:41.747Z,62.93
2018-07-10T01:50:07.884Z,62.84
2018-07-10T01:50:34.013Z,63.12
2018-07-10T01:51:00.153Z,62.84
2018-07-10T01:51:26.307Z,63.12
2018-07-10T01:51:52.445Z,63.79
2018-07-10T01:52:18.584Z,63.41
2018-07-10T01:52:44.744Z,63.22
2018-07-10T01:53:10.881Z,62.93
2018-07-10T01:53:37.017Z,62.45
2018-07-10T01:54:03.166Z,62.35
2018-07-10T01:54:29.299Z,62.55
2018-07-10T01:54:55.487Z,62.45
2018-07-10T01:55:21.623Z,62.45
2018-07-10T01:55:47.767Z,62.9
2018-07-10T01:56:13.902Z,63.02
2018-07-10T01:56:40.122Z,63.48
2018-07-10T01:57:06.204Z,63.28
2018-07-10T01:57:32.338Z,63.28
2018-07-10T01:57:58.473Z,63.28
2018-07-10T01:58:24.614Z,63.57
2018-07-10T01:58:50.755Z,63.38
2018-07-10T01:59:16.892Z,62.99
2018-07-10T01:59:43.033Z,63.48
2018-07-10T02:00:09.170Z,63.38
2018-07-10T02:00:35.299Z,63.86
2018-07-10T02:01:01.469Z,63.38
2018-07-10T02:01:27.610Z,63.48
2018-07-10T02:01:53.744Z,64.15
2018-07-10T02:02:19.882Z,63.96
2018-07-10T02:02:46.014Z,63.76
2018-07-10T02:03:12.156Z,63.96
2018-07-10T02:03:38.286Z,63.96
2018-07-10T02:04:04.423Z,63.67
2018-07-10T02:04:30.560Z,64.15
2018-07-10T02:04:56.696Z,64.25
2018-07-10T02:05:22.834Z,63.86
2018-07-10T02:05:48.966Z,64.25
2018-07-10T02:06:15.136Z,64.43
2018-07-10T02:06:41.317Z,64.02
2018-07-10T02:07:07.411Z,63.86
2018-07-10T02:07:33.550Z,64.02
2018-07-10T02:07:59.710Z,64.12
2018-07-10T02:08:25.849Z,64.22
2018-07-10T02:08:51.985Z,64.05
2018-07-10T02:09:18.148Z,64.43
2018-07-10T02:09:44.308Z,63.86
2018-07-10T02:10:10.447Z,63.86
2018-07-10T02:10:36.605Z,64.43
2018-07-10T02:11:02.754Z,63.86
2018-07-10T02:11:28.942Z,63.48
2018-07-10T02:11:55.067Z,63.96
2018-07-10T02:12:21.207Z,63.57
2018-07-10T02:12:47.344Z,63.86
2018-07-10T02:13:13.478Z,63.48
2018-07-10T02:13:39.620Z,63.19
2018-07-10T02:14:05.813Z,62.99
2018-07-10T02:14:31.935Z,63.67
2018-07-10T02:14:58.104Z,63.64
2018-07-10T02:15:24.238Z,63.54
2018-07-10T02:15:50.373Z,63.83
2018-07-10T02:16:16.504Z,64.02
2018-07-10T02:16:42.645Z,63.45
2018-07-10T02:17:08.783Z,64.02
2018-07-10T02:17:34.915Z,64.22
2018-07-10T02:18:01.053Z,63.92
2018-07-10T02:18:27.196Z,64.12
2018-07-10T02:18:53.336Z,64.02
2018-07-10T02:19:19.481Z,63.83
2018-07-10T02:19:45.634Z,63.92
2018-07-10T02:20:11.813Z,63.64
2018-07-10T02:20:37.941Z,64.12
2018-07-10T02:21:04.073Z,63.92
2018-07-10T02:21:30.207Z,64.98
2018-07-10T02:21:56.350Z,64.79
2018-07-10T02:22:22.488Z,64.69
2018-07-10T02:22:48.616Z,64.5
2018-07-10T02:23:14.754Z,64.4
2018-07-10T02:23:40.897Z,64.89
2018-07-10T02:24:07.031Z,64.69
2018-07-10T02:24:33.181Z,64.69
2018-07-10T02:24:59.316Z,64.79
2018-07-10T02:25:25.462Z,64.69
2018-07-10T02:25:51.596Z,64.69
2018-07-10T02:26:17.783Z,64.79
2018-07-10T02:26:43.943Z,64.31
2018-07-10T02:27:10.085Z,64.12
2018-07-10T02:27:36.220Z,64.02
2018-07-10T02:28:02.356Z,63.83
2018-07-10T02:28:28.503Z,64.12
2018-07-10T02:28:54.639Z,63.92
2018-07-10T02:29:20.775Z,64.12
2018-07-10T02:29:46.939Z,64.22
2018-07-10T02:30:13.075Z,64.79
2018-07-10T02:30:39.216Z,64.31
2018-07-10T02:31:05.356Z,64.5
2018-07-10T02:31:31.515Z,64.12
2018-07-10T02:31:57.675Z,63.92
2018-07-10T02:32:23.814Z,64.18
2018-07-10T02:32:49.957Z,64.66
2018-07-10T02:33:16.087Z,64.47
2018-07-10T02:33:42.247Z,64.37
2018-07-10T02:34:08.410Z,64.76
2018-07-10T02:34:34.572Z,65.14
2018-07-10T02:35:00.783Z,65.33
2018-07-10T02:35:26.930Z,64.47
2018-07-10T02:35:53.093Z,64.37
2018-07-10T02:36:19.264Z,64.47
2018-07-10T02:36:45.423Z,64.47
2018-07-10T02:37:11.580Z,64.69
2018-07-10T02:37:37.771Z,64.59
2018-07-10T02:38:03.930Z,64.47
2018-07-10T02:38:30.114Z,64.47
2018-07-10T02:38:56.275Z,64.47
2018-07-10T02:39:22.435Z,64.66
2018-07-10T02:39:48.597Z,64.76
2018-07-10T02:40:14.733Z,64.95
2018-07-10T02:40:40.862Z,64.09
2018-07-10T02:41:07.035Z,64.56
2018-07-10T02:41:33.195Z,64.09
2018-07-10T02:41:59.359Z,64.66
2018-07-10T02:42:25.501Z,64.66
2018-07-10T02:42:51.644Z,64.28
2018-07-10T02:43:17.820Z,64.37
2018-07-10T02:43:43.986Z,64.56
2018-07-10T02:44:10.125Z,64.85
2018-07-10T02:44:36.262Z,64.56
2018-07-10T02:45:02.415Z,64.56
2018-07-10T02:45:28.562Z,65.05
2018-07-10T02:45:54.733Z,65.14
2018-07-10T02:46:20.915Z,64.85
2018-07-10T02:46:47.071Z,64.85
2018-07-10T02:47:13.206Z,64.95
2018-07-10T02:47:39.349Z,65.14
2018-07-10T02:48:05.518Z,64.76
2018-07-10T02:48:31.677Z,65.33
2018-07-10T02:48:57.838Z,64.95
2018-07-10T02:49:23.980Z,65.14
2018-07-10T02:49:50.123Z,64.95
2018-07-10T02:50:16.284Z,65.05
2018-07-10T02:50:42.478Z,65.72
2018-07-10T02:51:08.631Z,66.29
2018-07-10T02:51:34.798Z,66.1
2018-07-10T02:52:00.963Z,65.81
2018-07-10T02:52:27.109Z,65.91
2018-07-10T02:52:53.253Z,66.06
2018-07-10T02:53:19.385Z,66.19
2018-07-10T02:53:45.541Z,65.81
2018-07-10T02:54:11.709Z,65.68
2018-07-10T02:54:37.876Z,66.19
2018-07-10T02:55:04.031Z,66.19
2018-07-10T02:55:30.190Z,65.81
2018-07-10T02:55:56.335Z,65.62
2018-07-10T02:56:22.566Z,65.62
2018-07-10T02:56:48.730Z,65.72
2018-07-10T02:57:14.883Z,65.78
2018-07-10T02:57:41.030Z,65.91
2018-07-10T02:58:07.190Z,65.78
2018-07-10T02:58:33.347Z,66.16
2018-07-10T02:58:59.512Z,66
2018-07-10T02:59:25.644Z,66.26
2018-07-10T02:59:51.823Z,65.88
2018-07-10T03:00:18.011Z,65.97
2018-07-10T03:00:44.276Z,66.16
2018-07-10T03:01:10.492Z,66.16
2018-07-10T03:01:36.675Z,66.06
2018-07-10T03:02:02.911Z,65.78
2018-07-10T03:02:29.224Z,65.68
2018-07-10T03:02:55.446Z,65.88
2018-07-10T03:03:21.745Z,66.16
2018-07-10T03:03:47.934Z,65.97
2018-07-10T03:04:14.154Z,65.97
2018-07-10T03:04:40.298Z,66.35
2018-07-10T03:05:06.467Z,66.35
2018-07-10T03:05:32.650Z,66.26
2018-07-10T03:05:58.801Z,66.16
2018-07-10T03:06:24.930Z,66.26
2018-07-10T03:06:51.070Z,66.06
2018-07-10T03:07:17.256Z,66.06
2018-07-10T03:07:43.445Z,65.68
2018-07-10T03:08:09.582Z,66.06
2018-07-10T03:08:35.718Z,66.45
2018-07-10T03:09:01.912Z,66.64
2018-07-10T03:09:28.041Z,66.74
2018-07-10T03:09:54.204Z,66.35
2018-07-10T03:10:20.337Z,66.26
2018-07-10T03:10:46.488Z,66.55
2018-07-10T03:11:12.648Z,65.88
2018-07-10T03:11:38.816Z,66.35
2018-07-10T03:12:04.963Z,66.35
2018-07-10T03:12:31.129Z,66.64
2018-07-10T03:12:57.260Z,66.55
2018-07-10T03:13:23.442Z,66.64
2018-07-10T03:13:49.618Z,66.64
2018-07-10T03:14:15.779Z,66.26
2018-07-10T03:14:41.953Z,66.83
2018-07-10T03:15:08.109Z,66.74
2018-07-10T03:15:34.239Z,66.16
2018-07-10T03:16:00.387Z,66.35
2018-07-10T03:16:26.524Z,66.64
2018-07-10T03:16:52.656Z,66.83
2018-07-10T03:17:18.796Z,66.26
2018-07-10T03:17:44.936Z,66.74
2018-07-10T03:18:11.096Z,66.45
2018-07-10T03:18:37.262Z,66.35
2018-07-10T03:19:03.422Z,66.55
2018-07-10T03:19:29.579Z,66.55
2018-07-10T03:19:55.720Z,66.45
2018-07-10T03:20:21.890Z,66.74
2018-07-10T03:20:48.034Z,67.02
2018-07-10T03:21:14.173Z,66.45
2018-07-10T03:21:40.356Z,66.45
2018-07-10T03:22:06.496Z,66.55
2018-07-10T03:22:32.629Z,66.74
2018-07-10T03:22:58.792Z,66.45
2018-07-10T03:23:25.000Z,66.35
2018-07-10T03:23:51.120Z,66.35
2018-07-10T03:24:17.300Z,66.45
2018-07-10T03:24:43.438Z,67.02
2018-07-10T03:25:09.596Z,66.74
2018-07-10T03:25:35.764Z,67.02
2018-07-10T03:26:01.900Z,66.55
2018-07-10T03:26:28.067Z,66.64
2018-07-10T03:26:54.209Z,67.12
2018-07-10T03:27:20.362Z,66.83
2018-07-10T03:27:46.500Z,67.02
2018-07-10T03:28:12.665Z,67.02
2018-07-10T03:28:38.799Z,66.93
2018-07-10T03:29:04.941Z,66.93
2018-07-10T03:29:31.076Z,66.64
2018-07-10T03:29:57.208Z,67.32
2018-07-10T03:30:23.346Z,66.93
2018-07-10T03:30:49.508Z,66.64
2018-07-10T03:31:15.669Z,67.02
2018-07-10T03:31:41.809Z,66.83
2018-07-10T03:32:07.972Z,66.74
2018-07-10T03:32:34.122Z,67.12
2018-07-10T03:33:00.287Z,66.93
2018-07-10T03:33:26.427Z,66.74
2018-07-10T03:33:52.555Z,66.93
2018-07-10T03:34:18.741Z,66.93
2018-07-10T03:34:44.885Z,66.93
2018-07-10T03:35:11.015Z,66.93
2018-07-10T03:35:37.149Z,66.93
2018-07-10T03:36:03.312Z,66.83
2018-07-10T03:36:29.622Z,66.83
2018-07-10T03:36:55.639Z,66.93
2018-07-10T03:37:21.798Z,66.74
2018-07-10T03:37:47.957Z,66.83
2018-07-10T03:38:14.097Z,66.93
2018-07-10T03:38:40.230Z,66.93
2018-07-10T03:39:06.363Z,66.93
2018-07-10T03:39:32.506Z,66.83
2018-07-10T03:39:58.646Z,66.93
2018-07-10T03:40:24.779Z,66.83
2018-07-10T03:40:50.915Z,66.93
2018-07-10T03:41:17.058Z,67.12
2018-07-10T03:41:43.194Z,66.93
2018-07-10T03:42:09.333Z,66.74
2018-07-10T03:42:35.494Z,66.74
2018-07-10T03:43:01.652Z,66.74
2018-07-10T03:43:27.803Z,67.12
2018-07-10T03:43:53.931Z,67.02
2018-07-10T03:44:20.071Z,67.12
2018-07-10T03:44:46.239Z,67.22
2018-07-10T03:45:12.336Z,67.22
2018-07-10T03:45:38.501Z,67.5
2018-07-10T03:46:04.636Z,67.6
2018-07-10T03:46:30.774Z,67.32
2018-07-10T03:46:56.929Z,67.6
2018-07-10T03:47:23.074Z,67.6
2018-07-10T03:47:49.234Z,67.32
2018-07-10T03:48:15.365Z,67.41
2018-07-10T03:48:41.512Z,67.41
2018-07-10T03:49:07.686Z,67.6
2018-07-10T03:49:33.828Z,67.89
2018-07-10T03:49:59.988Z,67.6
2018-07-10T03:50:26.119Z,68.18
2018-07-10T03:50:52.257Z,68.18
2018-07-10T03:51:18.392Z,67.99
2018-07-10T03:51:44.534Z,67.99
2018-07-10T03:52:10.707Z,68.27
2018-07-10T03:52:36.846Z,68.46
2018-07-10T03:53:02.980Z,68.27
2018-07-10T03:53:29.115Z,68.46
2018-07-10T03:53:55.242Z,68.08
2018-07-10T03:54:21.387Z,67.89
2018-07-10T03:54:47.540Z,68.46
2018-07-10T03:55:13.683Z,68.18
2018-07-10T03:55:39.816Z,67.89
2018-07-10T03:56:05.953Z,67.99
2018-07-10T03:56:32.093Z,67.79
2018-07-10T03:56:58.271Z,68.37
2018-07-10T03:57:24.406Z,67.99
2018-07-10T03:57:50.551Z,67.99
2018-07-10T03:58:16.680Z,67.5
2018-07-10T03:58:42.821Z,67.69
2018-07-10T03:59:08.952Z,67.79
2018-07-10T03:59:35.093Z,67.69
2018-07-10T04:00:01.227Z,67.41
2018-07-10T04:00:27.370Z,68.08
2018-07-10T04:00:53.526Z,68.18
2018-07-10T04:01:19.687Z,67.99
2018-07-10T04:01:45.832Z,68.46
2018-07-10T04:02:11.989Z,67.79
2018-07-10T04:02:38.137Z,68.08
2018-07-10T04:03:04.270Z,67.32
2018-07-10T04:03:30.415Z,67.69
2018-07-10T04:03:56.578Z,67.69
2018-07-10T04:04:22.720Z,67.69
2018-07-10T04:04:48.877Z,67.89
2018-07-10T04:05:15.031Z,67.41
2018-07-10T04:05:41.175Z,67.79
2018-07-10T04:06:07.339Z,68.08
2018-07-10T04:06:33.476Z,68.08
2018-07-10T04:06:59.613Z,68.37
2018-07-10T04:07:25.754Z,68.37
2018-07-10T04:07:51.933Z,68.27
2018-07-10T04:08:18.106Z,68.56
2018-07-10T04:08:44.242Z,68.46
2018-07-10T04:09:10.553Z,68.66
2018-07-10T04:09:36.546Z,68.56
2018-07-10T04:10:02.682Z,68.46
2018-07-10T04:10:28.840Z,68.46
2018-07-10T04:10:54.983Z,68.37
2018-07-10T04:11:21.127Z,68.27
2018-07-10T04:11:47.303Z,68.46
2018-07-10T04:12:13.442Z,68.37
2018-07-10T04:12:39.588Z,67.89
2018-07-10T04:13:05.747Z,68.08
2018-07-10T04:13:31.884Z,67.41
2018-07-10T04:13:58.022Z,67.79
2018-07-10T04:14:24.173Z,67.69
2018-07-10T04:14:50.306Z,67.99
2018-07-10T04:15:16.441Z,67.5
2018-07-10T04:15:42.570Z,67.6
2018-07-10T04:16:08.711Z,67.6
2018-07-10T04:16:34.849Z,67.54
2018-07-10T04:17:00.989Z,66.93
2018-07-10T04:17:27.127Z,66.86
2018-07-10T04:17:53.312Z,67.06
2018-07-10T04:18:19.393Z,66.74
2018-07-10T04:18:45.528Z,66.77
2018-07-10T04:19:11.667Z,66.77
2018-07-10T04:19:37.811Z,67.16
2018-07-10T04:20:03.947Z,67.35
2018-07-10T04:20:30.088Z,67.12
2018-07-10T04:20:56.223Z,66.93
2018-07-10T04:21:22.363Z,67.12
2018-07-10T04:21:48.499Z,67.02
2018-07-10T04:22:14.634Z,66.96
2018-07-10T04:22:40.788Z,66.83
2018-07-10T04:23:06.913Z,67.25
2018-07-10T04:23:33.073Z,67.25
2018-07-10T04:23:59.208Z,66.86
2018-07-10T04:24:25.349Z,66.67
2018-07-10T04:24:51.488Z,67.32
2018-07-10T04:25:17.657Z,67.12
2018-07-10T04:25:43.815Z,66.83
2018-07-10T04:26:09.952Z,66.74
2018-07-10T04:26:36.091Z,67.06
2018-07-10T04:27:02.224Z,67.16
2018-07-10T04:27:28.387Z,66.83
2018-07-10T04:27:54.550Z,67.16
2018-07-10T04:28:20.682Z,66.96
2018-07-10T04:28:46.836Z,67.06
2018-07-10T04:29:13.004Z,67.16
2018-07-10T04:29:39.147Z,67.41
2018-07-10T04:30:05.352Z,67.16
2018-07-10T04:30:31.480Z,67.06
2018-07-10T04:30:57.625Z,67.06
2018-07-10T04:31:23.758Z,66.86
2018-07-10T04:31:49.898Z,66.74
2018-07-10T04:32:16.034Z,67.35
2018-07-10T04:32:42.176Z,66.96
2018-07-10T04:33:08.317Z,66.93
2018-07-10T04:33:34.455Z,67.12
2018-07-10T04:34:00.593Z,67.06
2018-07-10T04:34:26.744Z,67.16
2018-07-10T04:34:52.908Z,66.96
2018-07-10T04:35:19.048Z,67.25
2018-07-10T04:35:45.182Z,66.83
2018-07-10T04:36:11.324Z,66.93
2018-07-10T04:36:37.459Z,67.12
2018-07-10T04:37:03.601Z,66.83
2018-07-10T04:37:29.739Z,67.35
2018-07-10T04:37:55.879Z,67.22
2018-07-10T04:38:22.045Z,67.06
2018-07-10T04:38:48.179Z,66.64
2018-07-10T04:39:14.303Z,67.06
2018-07-10T04:39:40.446Z,66.96
2018-07-10T04:40:06.578Z,67.16
2018-07-10T04:40:32.712Z,66.93
2018-07-10T04:40:58.850Z,66.96
2018-07-10T04:41:24.990Z,66.86
2018-07-10T04:41:51.119Z,66.77
2018-07-10T04:42:17.294Z,66.83
2018-07-10T04:42:43.416Z,66.77
2018-07-10T04:43:09.551Z,66.67
2018-07-10T04:43:35.682Z,66.67
2018-07-10T04:44:01.826Z,66.96
2018-07-10T04:44:27.982Z,67.06
2018-07-10T04:44:54.124Z,66.96
2018-07-10T04:45:20.259Z,66.67
2018-07-10T04:45:46.396Z,66.67
2018-07-10T04:46:12.536Z,66.58
2018-07-10T04:46:38.677Z,67.06
2018-07-10T04:47:04.832Z,67.12
2018-07-10T04:47:30.966Z,67.35
2018-07-10T04:47:57.104Z,66.49
2018-07-10T04:48:23.244Z,66.58
2018-07-10T04:48:49.388Z,67.06
2018-07-10T04:49:15.557Z,66.96
2018-07-10T04:49:41.679Z,67.06
2018-07-10T04:50:07.813Z,66.96
2018-07-10T04:50:33.968Z,67.02
2018-07-10T04:51:00.110Z,66.83
2018-07-10T04:51:26.243Z,66.83
2018-07-10T04:51:52.387Z,66.93
2018-07-10T04:52:18.519Z,66.55
2018-07-10T04:52:44.664Z,66.35
2018-07-10T04:53:10.802Z,66.77
2018-07-10T04:53:36.941Z,66.96
2018-07-10T04:54:03.081Z,66.96
2018-07-10T04:54:29.221Z,66.74
2018-07-10T04:54:55.356Z,67.12
2018-07-10T04:55:21.500Z,66.83
2018-07-10T04:55:47.639Z,67.22
2018-07-10T04:56:13.770Z,66.74
2018-07-10T04:56:39.909Z,67.12
2018-07-10T04:57:06.050Z,67.02
2018-07-10T04:57:32.184Z,66.93
2018-07-10T04:57:58.332Z,67.41
2018-07-10T04:58:24.463Z,67.12
2018-07-10T04:58:50.608Z,67.22
2018-07-10T04:59:16.737Z,67.79
2018-07-10T04:59:42.878Z,67.79
2018-07-10T05:00:09.031Z,67.79
2018-07-10T05:00:35.172Z,67.5
2018-07-10T05:01:01.304Z,67.32
2018-07-10T05:01:27.445Z,67.32
2018-07-10T05:01:53.606Z,67.69
2018-07-10T05:02:19.762Z,67.5
2018-07-10T05:02:45.903Z,67.32
2018-07-10T05:03:12.087Z,67.69
2018-07-10T05:03:38.225Z,67.89
2018-07-10T05:04:04.367Z,67.69
2018-07-10T05:04:30.508Z,67.79
2018-07-10T05:04:56.693Z,67.69
2018-07-10T05:05:22.826Z,67.6
2018-07-10T05:05:49.049Z,67.41
2018-07-10T05:06:15.122Z,67.89
2018-07-10T05:06:41.275Z,67.79
2018-07-10T05:07:07.419Z,67.89
2018-07-10T05:07:33.572Z,68.08
2018-07-10T05:07:59.714Z,67.89
2018-07-10T05:08:25.851Z,67.79
2018-07-10T05:08:52.001Z,67.89
2018-07-10T05:09:18.167Z,67.5
2018-07-10T05:09:44.354Z,67.5
2018-07-10T05:10:10.522Z,67.41
2018-07-10T05:10:36.661Z,67.41
2018-07-10T05:11:02.792Z,66.93
2018-07-10T05:11:28.953Z,66.83
2018-07-10T05:11:55.112Z,67.41
2018-07-10T05:12:21.237Z,67.41
2018-07-10T05:12:47.379Z,66.83
2018-07-10T05:13:13.520Z,67.02
2018-07-10T05:13:39.652Z,66.64
2018-07-10T05:14:05.817Z,66.93
2018-07-10T05:14:31.957Z,66.74
2018-07-10T05:14:58.134Z,66.35
2018-07-10T05:15:24.304Z,66.16
2018-07-10T05:15:50.435Z,66.64
2018-07-10T05:16:16.600Z,66.45
2018-07-10T05:16:42.762Z,66.35
2018-07-10T05:17:08.899Z,66.45
2018-07-10T05:17:35.098Z,66.64
2018-07-10T05:18:01.216Z,66.64
2018-07-10T05:18:27.357Z,66.64
2018-07-10T05:18:53.500Z,66.45
2018-07-10T05:19:19.652Z,66.45
2018-07-10T05:19:45.798Z,66.74
2018-07-10T05:20:11.955Z,66.74
2018-07-10T05:20:38.096Z,66.74
2018-07-10T05:21:04.237Z,66.74
2018-07-10T05:21:30.413Z,66.74
2018-07-10T05:21:56.551Z,66.74
2018-07-10T05:22:22.721Z,66.45
2018-07-10T05:22:48.865Z,66.64
2018-07-10T05:23:15.021Z,66.93
2018-07-10T05:23:41.152Z,67.02
2018-07-10T05:24:07.314Z,67.02
2018-07-10T05:24:33.444Z,66.74
2018-07-10T05:24:59.628Z,66.93
2018-07-10T05:25:25.747Z,66.64
2018-07-10T05:25:51.896Z,67.02
2018-07-10T05:26:18.042Z,66.64
2018-07-10T05:26:44.202Z,67.12
2018-07-10T05:27:10.342Z,66.74
2018-07-10T05:27:36.480Z,66.55
2018-07-10T05:28:02.639Z,66.45
2018-07-10T05:28:28.782Z,66.35
2018-07-10T05:28:54.960Z,66.93
2018-07-10T05:29:21.083Z,66.35
2018-07-10T05:29:47.236Z,66.49
2018-07-10T05:30:13.379Z,66.49
2018-07-10T05:30:39.514Z,66.39
2018-07-10T05:31:05.649Z,66.35
2018-07-10T05:31:31.784Z,66.39
2018-07-10T05:31:57.933Z,66.49
2018-07-10T05:32:24.061Z,66.58
2018-07-10T05:32:50.202Z,66.58
2018-07-10T05:33:16.362Z,66.19
2018-07-10T05:33:42.503Z,66.49
2018-07-10T05:34:08.642Z,66.29
2018-07-10T05:34:34.783Z,66.16
2018-07-10T05:35:00.971Z,66.58
2018-07-10T05:35:27.105Z,66.1
2018-07-10T05:35:53.267Z,66.49
2018-07-10T05:36:19.411Z,65.91
2018-07-10T05:36:45.547Z,66.29
2018-07-10T05:37:11.754Z,66.49
2018-07-10T05:37:37.873Z,66
2018-07-10T05:38:04.017Z,65.72